Willis, MI (48191)

4:28 PM EDT on August 03, 2015 (GMT -0400)
Sumpter Township | | Change Station
CLOSE
Current Station
Personal Weather Station
Location: Belleville, MI
Elevation: 666 ft
Nearby Weather Stations

Elev 666 ft 42.13 °N, 83.54 °W | Updated 4 minutes ago

Partly Cloudy
Partly Cloudy
82.2 °F
Feels Like 83 °F
N
6.3
Wind Variable Wind from WNW

Today
High -- | Low -- °F
--% Chance of Precip.
Yesterday
High -- | Low -- °F
Precip. -- in
6:29 AM 8:51 PM
Waning Gibbous, 84% visible
Pressure 29.76 in
Visibility 10.0 miles
Clouds Mostly Cloudy 5500 ft
Mostly Cloudy 7500 ft
Heat Index 83 °F
Dew Point 62 °F
Humidity 50%
Rainfall 1.05 in
Snow Depth Not available.
UV 4 out of 12
Pollen 3.90 out of 12
Air Quality Not available.
Flu Activity Not available.
METAR KYIP 031953Z AUTO 26015KT 10SM BKN055 BKN075 29/15 A2978 RMK AO2 SLP078 T02890150 TSNO

More Conditions Fewer Conditions

Pressure 29.76 in
Visibility 10.0 miles
Clouds Mostly Cloudy 5500 ft
Mostly Cloudy 7500 ft
Heat Index 83 °F
Dew Point 62 °F
Humidity 50%
Rainfall 1.05 in
Snow Depth Not available.
UV 4 out of 12
Pollen 3.90 out of 12
Air Quality Not available.
Flu Activity Not available.
METAR KYIP 031953Z AUTO 26015KT 10SM BKN055 BKN075 29/15 A2978 RMK AO2 SLP078 T02890150 TSNO

More Conditions Fewer Conditions

10-Day Weather Forecast

×

Almanac

Astronomy

Aug. 03, 2015 Rise Set
Actual Time
Civil Twilight
Nautical Twilight
Astronomical Twilight
Moon
Length of Visible Light
Length of Day
Tomorrow will be .
, % of the Moon is Illuminated

Today's Extremes

State Highs State Lows

Community

WunderPhotos

Upload Photos

1,843,743 photos uploaded!

WunderBlogs® & News

Nearby

Air Quality

  Air Quality AQ Index Pollutant
Not available.

Snow Depth

Station Depth Elevation

Earthquake Activity

City Distance Mag. Time & Date
Minimum magnitude displayed is 2.5.

Coastal Water Temperatures

Place Temperature

Stations

Nearby Weather Stations

Station Location Temp. Windchill Dew Point Humidity Wind Precip. Elev Updated Type